• Join FlightAware (Why Join?)
  • Login
  • US Flag 
06:52AM EST


 

Airport Tracker/Info


-or-


 

Live Flight TrackerFlight Track Log ✈ SKQ223 ✈ 12-Dec-2012 ✈ KPWK - KOSU

Flight Track Log - Related Links

Times and Time Zones

All times are in EST time to prevent confusion due to time zone crossing. See the SKQ223 flight status page for this flight to view local times or setup timezone preferences in your user account.

Time Position Orientation Groundspeed Altitude Reporting Facility
EST Latitude Longitude Course Direction KTS MPH feet Rate Location/Type
01:53AM 41.9946 -87.5945 114° Southeast  Level Estimated
01:54AM 41.9705 -87.5333 124° Southeast  Level Estimated
01:55AM 41.9464 -87.4720 119° Southeast  Level Estimated
01:56AM 41.9210 -87.4119 120° Southeast  Level FlightAware Approximate
01:57AM 41.8955 -87.3518 120° Southeast  Level FlightAware Approximate
01:58AM 41.8699 -87.2917 120° Southeast  Level FlightAware Approximate
01:59AM 41.8444 -87.2317 120° Southeast  Level FlightAware Approximate
02:00AM 41.8188 -87.1717 120° Southeast  Level FlightAware Approximate
02:01AM 41.7931 -87.1118 120° Southeast  Level FlightAware Approximate
02:02AM 41.7644 -87.0433 114° Southeast  Level FlightAware Approximate
02:03AM 41.7435 -86.9802 114° Southeast  Level FlightAware Approximate
02:04AM 41.7225 -86.9172 114° Southeast  Level FlightAware Approximate
02:05AM 41.7014 -86.8542 114° Southeast  Level FlightAware Approximate
02:06AM 41.6767 -86.7938 119° Southeast  Level FlightAware Approximate
02:07AM 41.6517 -86.7335 119° Southeast  Level FlightAware Approximate
02:08AM 41.6267 -86.6733 119° Southeast  Level FlightAware Approximate
02:09AM 41.6016 -86.6131 119° Southeast  Level FlightAware Approximate
02:10AM 41.5765 -86.5530 119° Southeast  Level FlightAware Approximate
02:11AM 41.5513 -86.4930 119° Southeast  Level FlightAware Approximate
02:12AM 41.5263 -86.4328 119° Southeast  Level FlightAware Approximate
02:13AM 41.5015 -86.3725 119° Southeast  Level FlightAware Approximate
02:14AM 41.4767 -86.3123 119° Southeast  Level FlightAware Approximate
02:15AM 41.4518 -86.2521 119° Southeast  Level FlightAware Approximate
02:16AM 41.4269 -86.1919 119° Southeast  Level FlightAware Approximate
02:17AM 41.4020 -86.1319 119° Southeast  Level FlightAware Approximate
02:18AM 41.3771 -86.0718 119° Southeast  Level FlightAware Approximate
02:19AM 41.3521 -86.0118 119° Southeast  Level FlightAware Approximate
02:20AM 41.3271 -85.9518 119° Southeast  Level FlightAware Approximate
02:21AM 41.3022 -85.8918 119° Southeast  Level FlightAware Approximate
02:22AM 41.2772 -85.8319 119° Southeast  Level FlightAware Approximate
02:23AM 41.2522 -85.7720 119° Southeast  Level FlightAware Approximate
02:24AM 41.2271 -85.7122 119° Southeast  Level FlightAware Approximate
02:25AM 41.2020 -85.6524 119° Southeast  Level FlightAware Approximate
02:26AM 41.1769 -85.5927 119° Southeast  Level FlightAware Approximate
02:27AM 41.1517 -85.5330 119° Southeast  Level FlightAware Approximate
02:28AM 41.1265 -85.4734 119° Southeast  Level FlightAware Approximate
02:29AM 41.1013 -85.4138 119° Southeast  Level FlightAware Approximate
02:30AM 41.0760 -85.3542 119° Southeast  Level FlightAware Approximate
02:31AM 41.0508 -85.2947 119° Southeast  Level FlightAware Approximate
02:32AM 41.0255 -85.2353 119° Southeast  Level FlightAware Approximate
02:33AM 41.0001 -85.1758 119° Southeast  Level FlightAware Approximate
02:34AM 40.9747 -85.1165 119° Southeast  Level FlightAware Approximate
02:35AM 40.9493 -85.0571 120° Southeast  Level FlightAware Approximate
02:36AM 40.9239 -84.9979 120° Southeast  Level FlightAware Approximate
02:37AM 40.8984 -84.9386 120° Southeast  Level FlightAware Approximate
02:38AM 40.8730 -84.8794 120° Southeast  Level FlightAware Approximate
02:39AM 40.8474 -84.8203 120° Southeast  Level FlightAware Approximate
02:40AM 40.8219 -84.7612 120° Southeast  Level FlightAware Approximate
02:41AM 40.7963 -84.7021 120° Southeast  Level FlightAware Approximate
02:42AM 40.7707 -84.6432 120° Southeast  Level FlightAware Approximate
02:43AM 40.7450 -84.5842 120° Southeast  Level FlightAware Approximate
02:44AM 40.7194 -84.5253 120° Southeast  Level FlightAware Approximate
02:45AM 40.6937 -84.4664 120° Southeast  Level FlightAware Approximate
02:46AM 40.6679 -84.4076 120° Southeast  Level FlightAware Approximate
02:47AM 40.6424 -84.3486 119° Southeast  Level FlightAware Approximate
02:48AM 40.6175 -84.2892 119° Southeast  Level FlightAware Approximate
02:49AM 40.5926 -84.2299 119° Southeast  Level FlightAware Approximate
02:50AM 40.5676 -84.1706 119° Southeast  Level FlightAware Approximate
02:51AM 40.5426 -84.1113 119° Southeast  Level FlightAware Approximate
02:52AM 40.5176 -84.0521 119° Southeast  Level FlightAware Approximate
02:53AM 40.4911 -83.9940 121° Southeast  Level FlightAware Approximate
02:54AM 40.4646 -83.9359 121° Southeast  Level FlightAware Approximate
02:55AM 40.4381 -83.8779 121° Southeast  Level FlightAware Approximate
02:56AM 40.4115 -83.8200 121° Southeast  Level FlightAware Approximate
02:57AM 40.3849 -83.7621 121° Southeast  Level FlightAware Approximate
02:58AM 40.3583 -83.7042 121° Southeast  Level FlightAware Approximate
02:59AM 40.3316 -83.6465 123° Southeast  Level FlightAware Approximate
03:00AM 40.3033 -83.5900 123° Southeast  Level FlightAware Approximate
03:01AM 40.2859 -83.5267 108° East  Level FlightAware Approximate
03:02AM 40.2595 -83.4691 123° Southeast  Level FlightAware Approximate
03:03AM 40.2342 -83.4104 118° Southeast  Level FlightAware Approximate
03:04AM 40.2095 -83.3513 122° Southeast  Level FlightAware Approximate
03:05AM 40.1825 -83.2938 122° Southeast  Level FlightAware Approximate
03:06AM 40.1555 -83.2364 122° Southeast  Level FlightAware Approximate
03:07AM 40.1285 -83.1791 122° Southeast  Level FlightAware Approximate
03:08AM 40.1015 -83.1218 122° Southeast  Level FlightAware Approximate
03:09AM 40.0798 -83.0732 143° Southeast  Level Estimated
03:10AM 40.0798 -83.0732 143° Southeast  Level Estimated
03:11AM 40.0798 -83.0732 143° Southeast  Level Estimated
03:12AM 40.0798 -83.0732 143° Southeast  Level Estimated
03:13AM 40.0798 -83.0732 143° Southeast  Level Estimated
03:14AM 40.0798 -83.0732 143° Southeast  Level Estimated
03:15AM 40.0798 -83.0732 143° Southeast  Level Estimated
03:16AM 40.0798 -83.0732 143° Southeast  Level Estimated
03:17AM 40.0798 -83.0732 143° Southeast  Level Estimated
03:18AM 40.0798 -83.0732 143° Southeast  Level Estimated
03:19AM 40.0798 -83.0732 143° Southeast  Level Estimated
03:20AM 40.0798 -83.0732 143° Southeast  Level Estimated
03:21AM 40.0798 -83.0732 143° Southeast  Level Estimated
03:22AM 40.0798 -83.0732 143° Southeast  Level Estimated
03:23AM 40.0798 -83.0732 143° Southeast  Level Estimated
03:24AM 40.0798 -83.0732 143° Southeast  Level Estimated
03:25AM 40.0798 -83.0732 143° Southeast  Level Estimated